Lindstrom, Minnesota
Current Conditions -  °F | °C
As of 9:55 AM on Sunday 23 Nov 2014 (Local Time) from KOEO Reporting Station
Moderate Fog Moderate Fog  
Wind Chill: 43°   Ceiling: 300
Heat Index: 43°   Visibility: 0mi
Dew Point: 43°   Wind: 3mph
Humidity: 100%   Direction: 170°S
Pressure: 29.48"   Gusts: NA
Location:  45.39°N, 92.85°W
Report Text: KOEO 231555Z AUTO 17003KT M1/4SM FG OVC003 06/06 A2948 RMK AO2 T00630063
Loading
Personal Weather Stations






























Interactive Weather Map New forecast layout! Learn more

10-Day Weather Forecast

Advertisements
Track Severe Weather on mobile